createdAt,value
2018-03-16T00:00:41.518Z,96997.48
2018-03-16T00:03:09.041Z,97000.02
2018-03-16T00:05:36.691Z,97006.28
2018-03-16T00:08:04.269Z,97009.15
2018-03-16T00:10:31.839Z,97020.58
2018-03-16T00:12:59.425Z,97024.07
2018-03-16T00:15:26.968Z,97034.86
2018-03-16T00:17:54.505Z,97029.61
2018-03-16T00:20:22.054Z,97038.77
2018-03-16T00:22:49.610Z,97043.58
2018-03-16T00:25:17.157Z,97042.81
2018-03-16T00:27:44.717Z,97043.45
2018-03-16T00:30:12.280Z,97040.72
2018-03-16T00:32:40.709Z,97054.42
2018-03-16T00:35:08.327Z,97051.86
2018-03-16T00:37:36.804Z,97049.67
2018-03-16T00:40:04.459Z,97056.03
2018-03-16T00:42:32.031Z,97065.89
2018-03-16T00:44:59.558Z,97064.08
2018-03-16T00:47:27.110Z,97057.64
2018-03-16T00:49:54.641Z,97054.61
2018-03-16T00:52:22.238Z,97056.83
2018-03-16T00:54:49.768Z,97057.14
2018-03-16T00:57:17.314Z,97058.08
2018-03-16T00:59:44.845Z,97050.30
2018-03-16T01:02:12.402Z,97060.44
2018-03-16T01:04:39.942Z,97063.91
2018-03-16T01:07:07.517Z,97054.84
2018-03-16T01:09:35.049Z,97063.70
2018-03-16T01:12:02.614Z,97071.09
2018-03-16T01:14:30.157Z,97071.53
2018-03-16T01:16:57.730Z,97058.25
2018-03-16T01:19:25.336Z,97063.64
2018-03-16T01:21:52.991Z,97059.39
2018-03-16T01:24:20.531Z,97057.38
2018-03-16T01:26:48.109Z,97068.78
2018-03-16T01:29:15.679Z,97073.81
2018-03-16T01:31:43.216Z,97070.94
2018-03-16T01:34:10.900Z,97067.41
2018-03-16T01:36:38.438Z,97071.03
2018-03-16T01:39:06.132Z,97073.75
2018-03-16T01:41:33.659Z,97073.52
2018-03-16T01:44:01.264Z,97071.36
2018-03-16T01:46:28.821Z,97064.02
2018-03-16T01:48:56.382Z,97064.67
2018-03-16T01:51:23.913Z,97056.13
2018-03-16T01:53:51.473Z,97074.25
2018-03-16T01:56:19.014Z,97076.76
2018-03-16T01:58:46.569Z,97072.91
2018-03-16T02:01:14.105Z,97075.03
2018-03-16T02:03:41.662Z,97078.02
2018-03-16T02:06:09.279Z,97072.38
2018-03-16T02:08:36.917Z,97071.17
2018-03-16T02:11:04.579Z,97081.58
2018-03-16T02:13:32.146Z,97084.02
2018-03-16T02:15:59.704Z,97084.26
2018-03-16T02:18:27.282Z,97089.56
2018-03-16T02:20:54.818Z,97080.05
2018-03-16T02:23:22.396Z,97087.91
2018-03-16T02:25:49.937Z,97081.45
2018-03-16T02:28:17.517Z,97085.48
2018-03-16T02:30:45.053Z,97079.03
2018-03-16T02:33:12.614Z,97085.30
2018-03-16T02:35:40.173Z,97081.22
2018-03-16T02:38:07.727Z,97074.77
2018-03-16T02:40:35.254Z,97067.64
2018-03-16T02:43:02.842Z,97068.44
2018-03-16T02:45:30.435Z,97067.60
2018-03-16T02:47:57.993Z,97063.77
2018-03-16T02:50:25.554Z,97067.81
2018-03-16T02:52:53.154Z,97068.06
2018-03-16T02:55:20.706Z,97073.88
2018-03-16T02:57:48.334Z,97077.62
2018-03-16T03:00:15.887Z,97071.11
2018-03-16T03:02:43.418Z,97076.17
2018-03-16T03:05:10.978Z,97088.11
2018-03-16T03:07:38.549Z,97082.45
2018-03-16T03:10:06.102Z,97080.51
2018-03-16T03:12:33.637Z,97082.46
2018-03-16T03:15:01.197Z,97092.61
2018-03-16T03:17:28.749Z,97097.42
2018-03-16T03:19:56.311Z,97094.64
2018-03-16T03:22:23.847Z,97094.98
2018-03-16T03:24:51.401Z,97089.05
2018-03-16T03:27:18.933Z,97090.34
2018-03-16T03:29:46.515Z,97081.45
2018-03-16T03:32:14.056Z,97097.46
2018-03-16T03:34:41.634Z,97107.49
2018-03-16T03:37:09.189Z,97096.06
2018-03-16T03:39:36.753Z,97095.80
2018-03-16T03:42:04.298Z,97095.27
2018-03-16T03:44:31.869Z,97101.07
2018-03-16T03:46:59.402Z,97105.77
2018-03-16T03:49:26.985Z,97095.39
2018-03-16T03:51:54.558Z,97108.30
2018-03-16T03:54:22.098Z,97111.30
2018-03-16T03:56:49.658Z,97111.71
2018-03-16T03:59:17.197Z,97118.83
2018-03-16T04:01:44.769Z,97114.86
2018-03-16T04:04:12.326Z,97113.46
2018-03-16T04:06:39.903Z,97117.52
2018-03-16T04:09:07.469Z,97119.03
2018-03-16T04:11:35.129Z,97114.45
2018-03-16T04:14:02.671Z,97121.11
2018-03-16T04:16:30.244Z,97118.05
2018-03-16T04:18:57.809Z,97119.06
2018-03-16T04:21:25.370Z,97124.21
2018-03-16T04:23:52.951Z,97122.24
2018-03-16T04:26:20.518Z,97121.41
2018-03-16T04:28:49.045Z,97130.88
2018-03-16T04:31:16.638Z,97127.20
2018-03-16T04:33:44.225Z,97134.06
2018-03-16T04:36:11.954Z,97124.21
2018-03-16T04:38:39.615Z,97130.19
2018-03-16T04:41:07.202Z,97132.16
2018-03-16T04:43:34.753Z,97126.29
2018-03-16T04:46:02.334Z,97133.34
2018-03-16T04:48:29.869Z,97126.89
2018-03-16T04:50:57.428Z,97137.88
2018-03-16T04:53:24.995Z,97137.23
2018-03-16T04:55:52.654Z,97135.95
2018-03-16T04:58:20.188Z,97134.66
2018-03-16T05:00:47.762Z,97132.36
2018-03-16T05:03:15.349Z,97133.80
2018-03-16T05:05:42.992Z,97139.66
2018-03-16T05:08:10.553Z,97143.72
2018-03-16T05:10:38.114Z,97144.85
2018-03-16T05:13:05.678Z,97148.71
2018-03-16T05:15:33.214Z,97149.16
2018-03-16T05:18:00.780Z,97154.77
2018-03-16T05:20:28.322Z,97153.83
2018-03-16T05:22:55.909Z,97156.37
2018-03-16T05:25:23.454Z,97147.43
2018-03-16T05:27:51.014Z,97155.84
2018-03-16T05:30:18.553Z,97156.86
2018-03-16T05:32:46.143Z,97159.66
2018-03-16T05:35:13.682Z,97158.83
2018-03-16T05:37:41.262Z,97161.18
2018-03-16T05:40:08.789Z,97166.91
2018-03-16T05:42:36.344Z,97168.60
2018-03-16T05:45:03.937Z,97164.20
2018-03-16T05:47:31.544Z,97170.20
2018-03-16T05:49:59.075Z,97174.06
2018-03-16T05:52:26.745Z,97177.66
2018-03-16T05:54:54.292Z,97180.05
2018-03-16T05:57:21.943Z,97180.50
2018-03-16T05:59:49.587Z,97184.70
2018-03-16T06:02:17.153Z,97186.33
2018-03-16T06:04:44.693Z,97189.81
2018-03-16T06:07:12.254Z,97194.73
2018-03-16T06:09:39.792Z,97193.21
2018-03-16T06:12:07.410Z,97194.98
2018-03-16T06:14:35.009Z,97201.47
2018-03-16T06:17:02.559Z,97198.97
2018-03-16T06:19:30.197Z,97200.14
2018-03-16T06:21:57.765Z,97208.06
2018-03-16T06:24:25.319Z,97206.73
2018-03-16T06:26:52.909Z,97207.29
2018-03-16T06:29:20.465Z,97207.17
2018-03-16T06:31:48.005Z,97217.59
2018-03-16T06:34:15.576Z,97220.39
2018-03-16T06:36:43.127Z,97212.91
2018-03-16T06:39:10.682Z,97212.64
2018-03-16T06:41:38.279Z,97213.69
2018-03-16T06:44:05.837Z,97217.58
2018-03-16T06:46:33.378Z,97214.95
2018-03-16T06:49:00.934Z,97216.15
2018-03-16T06:51:28.586Z,97218.45
2018-03-16T06:53:56.221Z,97221.41
2018-03-16T06:56:23.760Z,97224.16
2018-03-16T06:58:51.327Z,97228.67
2018-03-16T07:01:18.860Z,97235.69
2018-03-16T07:03:46.422Z,97236.71
2018-03-16T07:06:13.959Z,97234.56
2018-03-16T07:08:41.508Z,97231.71
2018-03-16T07:11:09.048Z,97230.06
2018-03-16T07:13:36.605Z,97227.75
2018-03-16T07:16:04.152Z,97233.16
2018-03-16T07:18:31.821Z,97234.42
2018-03-16T07:20:59.357Z,97232.33
2018-03-16T07:23:26.893Z,97237.84
2018-03-16T07:25:54.482Z,97234.30
2018-03-16T07:28:22.023Z,97241.11
2018-03-16T07:30:49.587Z,97238.64
2018-03-16T07:33:17.124Z,97244.20
2018-03-16T07:35:44.678Z,97244.53
2018-03-16T07:38:12.300Z,97253.09
2018-03-16T07:40:39.854Z,97260.33
2018-03-16T07:43:08.643Z,97262.67
2018-03-16T07:45:41.842Z,97258.00
2018-03-16T07:48:09.373Z,97267.09
2018-03-16T07:50:36.927Z,97275.34
2018-03-16T07:53:04.461Z,97274.06
2018-03-16T07:55:32.018Z,97276.73
2018-03-16T07:57:59.665Z,97279.70
2018-03-16T08:00:27.287Z,97278.22
2018-03-16T08:02:54.843Z,97285.50
2018-03-16T08:05:22.414Z,97281.50
2018-03-16T08:07:49.951Z,97288.17
2018-03-16T08:10:17.507Z,97292.45
2018-03-16T08:12:45.040Z,97296.09
2018-03-16T08:15:12.696Z,97295.23
2018-03-16T08:17:40.246Z,97299.00
2018-03-16T08:20:07.798Z,97298.81
2018-03-16T08:22:35.330Z,97294.87
2018-03-16T08:25:03.018Z,97303.16
2018-03-16T08:27:30.574Z,97306.42
2018-03-16T08:29:58.161Z,97303.29
2018-03-16T08:32:25.704Z,97305.40
2018-03-16T08:34:53.246Z,97304.08
2018-03-16T08:37:20.806Z,97301.64
2018-03-16T08:39:48.385Z,97303.61
2018-03-16T08:42:15.946Z,97298.62
2018-03-16T08:44:43.483Z,97300.84
2018-03-16T08:47:11.047Z,97299.20
2018-03-16T08:49:38.765Z,97299.00
2018-03-16T08:52:06.332Z,97307.61
2018-03-16T08:54:33.902Z,97313.98
2018-03-16T08:57:01.474Z,97306.39
2018-03-16T08:59:29.069Z,97314.85
2018-03-16T09:01:56.719Z,97316.56
2018-03-16T09:04:24.281Z,97315.81
2018-03-16T09:06:51.850Z,97312.98
2018-03-16T09:09:19.504Z,97313.51
2018-03-16T09:11:47.158Z,97315.67
2018-03-16T09:14:14.694Z,97317.73
2018-03-16T09:16:42.277Z,97314.64
2018-03-16T09:19:10.411Z,97324.03
2018-03-16T09:21:37.965Z,97322.50
2018-03-16T09:24:05.546Z,97319.43
2018-03-16T09:26:33.104Z,97325.95
2018-03-16T09:29:00.641Z,97326.26
2018-03-16T09:31:28.194Z,97326.86
2018-03-16T09:33:55.728Z,97323.86
2018-03-16T09:36:23.337Z,97323.74
2018-03-16T09:38:50.865Z,97314.21
2018-03-16T09:41:18.426Z,97317.20
2018-03-16T09:43:46.058Z,97319.59
2018-03-16T09:46:13.610Z,97316.81
2018-03-16T09:48:41.165Z,97318.77
2018-03-16T09:51:08.725Z,97321.20
2018-03-16T09:53:36.286Z,97327.08
2018-03-16T09:56:03.834Z,97325.22
2018-03-16T09:58:31.510Z,97327.80
2018-03-16T10:00:59.037Z,97329.00
2018-03-16T10:03:26.657Z,97334.28
2018-03-16T10:05:54.189Z,97330.73
2018-03-16T10:08:21.749Z,97332.52
2018-03-16T10:10:49.278Z,97341.75
2018-03-16T10:13:16.829Z,97336.62
2018-03-16T10:15:44.353Z,97336.46
2018-03-16T10:18:11.926Z,97335.36
2018-03-16T10:20:39.477Z,97337.58
2018-03-16T10:23:07.030Z,97337.05
2018-03-16T10:25:34.683Z,97334.77
2018-03-16T10:28:02.483Z,97331.70
2018-03-16T10:30:30.039Z,97342.16
2018-03-16T10:32:57.648Z,97338.91
2018-03-16T10:35:25.200Z,97337.14
2018-03-16T10:37:52.823Z,97341.61
2018-03-16T10:40:21.198Z,97335.27
2018-03-16T10:42:48.764Z,97338.69
2018-03-16T10:45:16.308Z,97344.80
2018-03-16T10:47:43.870Z,97341.26
2018-03-16T10:50:11.394Z,97335.47
2018-03-16T10:52:38.974Z,97339.11
2018-03-16T10:55:06.502Z,97338.66
2018-03-16T10:57:34.986Z,97337.92
2018-03-16T11:00:02.534Z,97332.17
2018-03-16T11:02:35.663Z,97334.67
2018-03-16T11:05:08.774Z,97326.22
2018-03-16T11:07:43.141Z,97336.38
2018-03-16T11:10:10.774Z,97339.91
2018-03-16T11:12:38.606Z,97353.06
2018-03-16T11:15:06.169Z,97346.42
2018-03-16T11:17:33.705Z,97343.11
2018-03-16T11:20:01.257Z,97346.08
2018-03-16T11:22:28.810Z,97343.08
2018-03-16T11:24:56.374Z,97340.32
2018-03-16T11:27:23.910Z,97333.06
2018-03-16T11:29:51.500Z,97329.77
2018-03-16T11:32:19.054Z,97331.28
2018-03-16T11:34:46.613Z,97332.68
2018-03-16T11:37:14.152Z,97328.55
2018-03-16T11:39:41.715Z,97325.36
2018-03-16T11:42:09.450Z,97322.88
2018-03-16T11:44:37.000Z,97324.83
2018-03-16T11:47:04.628Z,97329.22
2018-03-16T11:49:33.202Z,97318.95
2018-03-16T11:52:00.753Z,97325.41
2018-03-16T11:54:28.342Z,97327.27
2018-03-16T11:56:55.882Z,97326.59
2018-03-16T11:59:23.450Z,97324.17
2018-03-16T12:01:51.087Z,97325.75
2018-03-16T12:04:18.650Z,97319.28
2018-03-16T12:06:46.197Z,97323.02
2018-03-16T12:09:13.745Z,97315.23
2018-03-16T12:11:41.323Z,97317.23
2018-03-16T12:14:08.870Z,97315.53
2018-03-16T12:16:36.467Z,97311.22
2018-03-16T12:19:04.074Z,97306.99
2018-03-16T12:21:31.614Z,97308.88
2018-03-16T12:23:59.261Z,97306.34
2018-03-16T12:26:26.832Z,97303.63
2018-03-16T12:28:54.369Z,97302.87
2018-03-16T12:31:21.937Z,97301.05
2018-03-16T12:33:49.478Z,97298.27
2018-03-16T12:36:17.186Z,97297.70
2018-03-16T12:38:44.762Z,97292.03
2018-03-16T12:41:12.350Z,97300.28
2018-03-16T12:43:39.897Z,97286.41
2018-03-16T12:46:07.476Z,97280.59
2018-03-16T12:48:35.837Z,97279.37
2018-03-16T12:51:03.385Z,97280.14
2018-03-16T12:53:30.980Z,97277.84
2018-03-16T12:55:58.552Z,97277.73
2018-03-16T12:58:26.086Z,97278.30
2018-03-16T13:00:53.633Z,97278.81
2018-03-16T13:03:21.221Z,97279.08
2018-03-16T13:05:48.778Z,97276.97
2018-03-16T13:08:16.330Z,97275.61
2018-03-16T13:10:43.952Z,97268.41
2018-03-16T13:13:11.501Z,97260.00
2018-03-16T13:15:39.088Z,97262.70
2018-03-16T13:18:06.627Z,97256.41
2018-03-16T13:20:34.195Z,97256.19
2018-03-16T13:23:01.762Z,97252.85
2018-03-16T13:25:29.363Z,97250.55
2018-03-16T13:27:56.967Z,97248.77
2018-03-16T13:30:24.571Z,97250.92
2018-03-16T13:32:52.150Z,97246.59
2018-03-16T13:35:19.687Z,97250.77
2018-03-16T13:37:47.250Z,97254.33
2018-03-16T13:40:14.826Z,97245.73
2018-03-16T13:42:42.453Z,97239.27
2018-03-16T13:45:09.985Z,97239.33
2018-03-16T13:47:37.550Z,97231.73
2018-03-16T13:50:05.152Z,97241.99
2018-03-16T13:52:32.732Z,97240.55
2018-03-16T13:55:00.298Z,97228.19
2018-03-16T13:57:27.853Z,97233.27
2018-03-16T13:59:55.389Z,97228.67
2018-03-16T14:02:22.981Z,97231.97
2018-03-16T14:04:50.518Z,97222.16
2018-03-16T14:07:18.106Z,97223.73
2018-03-16T14:09:45.637Z,97205.24
2018-03-16T14:12:13.255Z,97211.37
2018-03-16T14:14:40.801Z,97209.61
2018-03-16T14:17:08.414Z,97211.25
2018-03-16T14:19:35.962Z,97207.91
2018-03-16T14:22:03.517Z,97209.52
2018-03-16T14:24:31.061Z,97203.87
2018-03-16T14:26:58.630Z,97201.66
2018-03-16T14:29:26.170Z,97196.80
2018-03-16T14:31:53.746Z,97186.89
2018-03-16T14:34:21.294Z,97190.75
2018-03-16T14:36:48.909Z,97181.11
2018-03-16T14:39:16.446Z,97173.72
2018-03-16T14:41:44.062Z,97167.88
2018-03-16T14:44:12.012Z,97158.94
2018-03-16T14:46:39.886Z,97163.45
2018-03-16T14:49:07.522Z,97159.70
2018-03-16T14:51:35.112Z,97161.59
2018-03-16T14:54:02.765Z,97157.28
2018-03-16T14:56:30.333Z,97150.39
2018-03-16T14:58:57.881Z,97151.93
2018-03-16T15:01:25.516Z,97149.20
2018-03-16T15:03:53.082Z,97146.23
2018-03-16T15:06:20.616Z,97147.78
2018-03-16T15:08:48.171Z,97142.69
2018-03-16T15:11:15.703Z,97152.89
2018-03-16T15:13:43.266Z,97145.45
2018-03-16T15:16:10.798Z,97133.42
2018-03-16T15:18:38.353Z,97138.45
2018-03-16T15:21:05.926Z,97129.87
2018-03-16T15:23:33.486Z,97130.91
2018-03-16T15:26:01.010Z,97123.85
2018-03-16T15:28:28.544Z,97127.61
2018-03-16T15:30:56.051Z,97123.67
2018-03-16T15:33:23.667Z,97120.34
2018-03-16T15:35:51.150Z,97125.82
2018-03-16T15:38:18.672Z,97114.79
2018-03-16T15:40:46.187Z,97111.52
2018-03-16T15:43:13.824Z,97108.50
2018-03-16T15:45:41.328Z,97102.24
2018-03-16T15:48:09.859Z,97102.73
2018-03-16T15:50:37.370Z,97096.34
2018-03-16T15:53:04.893Z,97098.53
2018-03-16T15:55:32.412Z,97093.80
2018-03-16T15:57:59.909Z,97095.67
2018-03-16T16:00:27.867Z,97097.87
2018-03-16T16:02:55.416Z,97092.55
2018-03-16T16:05:22.979Z,97085.00
2018-03-16T16:07:50.468Z,97087.25
2018-03-16T16:10:18.105Z,97082.83
2018-03-16T16:12:45.672Z,97086.82
2018-03-16T16:15:13.225Z,97083.36
2018-03-16T16:17:40.748Z,97083.51
2018-03-16T16:20:08.276Z,97083.06
2018-03-16T16:22:35.805Z,97077.73
2018-03-16T16:25:03.322Z,97078.66
2018-03-16T16:27:30.824Z,97081.29
2018-03-16T16:29:58.416Z,97079.48
2018-03-16T16:32:25.903Z,97083.94
2018-03-16T16:34:53.441Z,97082.89
2018-03-16T16:37:21.040Z,97081.70
2018-03-16T16:39:48.572Z,97078.45
2018-03-16T16:42:17.060Z,97075.45
2018-03-16T16:44:44.575Z,97076.48
2018-03-16T16:47:12.102Z,97086.84
2018-03-16T16:49:39.613Z,97091.08
2018-03-16T16:52:07.139Z,97093.84
2018-03-16T16:54:34.652Z,97089.77
2018-03-16T16:57:02.228Z,97090.48
2018-03-16T16:59:29.724Z,97097.18
2018-03-16T17:01:57.283Z,97094.95
2018-03-16T17:04:24.772Z,97091.75
2018-03-16T17:06:52.285Z,97100.86
2018-03-16T17:09:19.800Z,97112.25
2018-03-16T17:11:47.403Z,97101.70
2018-03-16T17:14:14.904Z,97103.55
2018-03-16T17:16:42.419Z,97097.55
2018-03-16T17:19:10.070Z,97106.74
2018-03-16T17:21:37.588Z,97103.08
2018-03-16T17:24:05.081Z,97103.67
2018-03-16T17:26:32.593Z,97105.91
2018-03-16T17:29:00.073Z,97107.58
2018-03-16T17:31:27.588Z,97114.14
2018-03-16T17:33:55.096Z,97115.59
2018-03-16T17:36:22.624Z,97116.83
2018-03-16T17:38:50.306Z,97117.14
2018-03-16T17:41:17.824Z,97115.33
2018-03-16T17:43:45.419Z,97124.38
2018-03-16T17:46:12.915Z,97122.05
2018-03-16T17:48:40.403Z,97124.66
2018-03-16T17:51:07.935Z,97132.38
2018-03-16T17:53:35.462Z,97127.59
2018-03-16T17:56:02.989Z,97130.39
2018-03-16T17:58:30.538Z,97128.63
2018-03-16T18:00:58.052Z,97130.75
2018-03-16T18:03:25.575Z,97123.66
2018-03-16T18:05:53.867Z,97119.77
2018-03-16T18:08:21.436Z,97119.19
2018-03-16T18:10:48.922Z,97125.14
2018-03-16T18:13:16.444Z,97123.55
2018-03-16T18:15:43.936Z,97130.81
2018-03-16T18:18:11.448Z,97137.48
2018-03-16T18:20:39.860Z,97137.58
2018-03-16T18:23:07.376Z,97139.48
2018-03-16T18:25:34.876Z,97134.20
2018-03-16T18:28:02.392Z,97131.47
2018-03-16T18:30:30.820Z,97132.88
2018-03-16T18:32:58.340Z,97138.97
2018-03-16T18:35:25.839Z,97142.05
2018-03-16T18:37:53.351Z,97144.31
2018-03-16T18:40:20.851Z,97147.23
2018-03-16T18:42:48.363Z,97146.47
2018-03-16T18:45:16.783Z,97146.66
2018-03-16T18:47:44.320Z,97143.03
2018-03-16T18:50:11.840Z,97136.50
2018-03-16T18:52:44.348Z,97141.50
2018-03-16T18:55:26.968Z,97149.08
2018-03-16T18:57:57.325Z,97143.83
2018-03-16T19:00:27.148Z,97136.31
2018-03-16T19:02:56.444Z,97134.74
2018-03-16T19:05:26.353Z,97136.77
2018-03-16T19:07:54.730Z,97129.62
2018-03-16T19:10:23.769Z,97132.63
2018-03-16T19:12:51.980Z,97126.38
2018-03-16T19:15:20.682Z,97120.97
2018-03-16T19:17:49.442Z,97111.05
2018-03-16T19:20:19.499Z,97105.50
2018-03-16T19:22:47.549Z,97106.77
2018-03-16T19:25:16.603Z,97101.61
2018-03-16T19:27:44.509Z,97100.91
2018-03-16T19:30:13.008Z,97099.16
2018-03-16T19:32:42.787Z,97102.75
2018-03-16T19:35:10.978Z,97097.73
2018-03-16T19:37:39.280Z,97097.53
2018-03-16T19:40:07.563Z,97101.86
2018-03-16T19:42:35.914Z,97100.03
2018-03-16T19:45:05.088Z,97104.98
2018-03-16T19:47:33.304Z,97109.25
2018-03-16T19:50:01.402Z,97109.09
2018-03-16T19:52:30.233Z,97110.35
2018-03-16T19:54:58.141Z,97107.47
2018-03-16T19:57:26.807Z,97099.57
2018-03-16T19:59:55.043Z,97101.03
2018-03-16T20:02:23.007Z,97093.52
2018-03-16T20:04:51.616Z,97093.04
2018-03-16T20:07:22.622Z,97084.72
2018-03-16T20:09:51.186Z,97090.31
2018-03-16T20:12:22.856Z,97093.55
2018-03-16T20:14:53.546Z,97096.52
2018-03-16T20:17:22.123Z,97093.33
2018-03-16T20:19:50.613Z,97096.31
2018-03-16T20:22:22.503Z,97107.11
2018-03-16T20:24:54.169Z,97105.05
2018-03-16T20:27:25.991Z,97103.30
2018-03-16T20:29:56.396Z,97109.36
2018-03-16T20:32:27.933Z,97107.52
2018-03-16T20:34:56.322Z,97113.72
2018-03-16T20:37:24.465Z,97110.86
2018-03-16T20:39:52.468Z,97109.52
2018-03-16T20:42:23.011Z,97101.92
2018-03-16T20:44:55.569Z,97103.30
2018-03-16T20:47:24.851Z,97100.22
2018-03-16T20:49:53.202Z,97093.61
2018-03-16T20:52:26.795Z,97101.61
2018-03-16T20:54:56.970Z,97108.47
2018-03-16T20:57:25.403Z,97111.59
2018-03-16T20:59:53.761Z,97125.09
2018-03-16T21:02:23.119Z,97131.45
2018-03-16T21:04:52.709Z,97130.83
2018-03-16T21:07:21.126Z,97142.30
2018-03-16T21:09:49.164Z,97138.52
2018-03-16T21:12:17.934Z,97141.80
2018-03-16T21:14:47.852Z,97146.37
2018-03-16T21:17:16.767Z,97145.88
2018-03-16T21:19:46.347Z,97143.70
2018-03-16T21:22:15.458Z,97147.43
2018-03-16T21:24:44.253Z,97145.51
2018-03-16T21:27:13.228Z,97135.45
2018-03-16T21:29:43.551Z,97129.58
2018-03-16T21:32:11.745Z,97130.63
2018-03-16T21:34:40.388Z,97128.59
2018-03-16T21:37:09.013Z,97126.14
2018-03-16T21:39:38.124Z,97124.19
2018-03-16T21:42:10.086Z,97113.76
2018-03-16T21:44:39.482Z,97109.49
2018-03-16T21:47:08.643Z,97105.64
2018-03-16T21:49:38.058Z,97101.72
2018-03-16T21:52:07.319Z,97098.16
2018-03-16T21:54:37.381Z,97092.34
2018-03-16T21:57:11.645Z,97092.62
2018-03-16T21:59:44.573Z,97090.22
2018-03-16T22:02:19.361Z,97089.02
2018-03-16T22:04:50.453Z,97091.64
2018-03-16T22:07:19.798Z,97090.58
2018-03-16T22:09:48.484Z,97096.06
2018-03-16T22:12:18.774Z,97102.01
2018-03-16T22:14:49.083Z,97101.88
2018-03-16T22:17:18.997Z,97118.07
2018-03-16T22:19:49.308Z,97117.04
2018-03-16T22:22:18.392Z,97114.80
2018-03-16T22:24:47.671Z,97107.96
2018-03-16T22:27:19.194Z,97109.50
2018-03-16T22:29:50.186Z,97111.80
2018-03-16T22:32:18.817Z,97116.78
2018-03-16T22:34:47.268Z,97114.75
2018-03-16T22:37:16.052Z,97115.25
2018-03-16T22:39:48.083Z,97111.25
2018-03-16T22:42:17.779Z,97104.67
2018-03-16T22:44:46.692Z,97103.88
2018-03-16T22:47:15.026Z,97101.59
2018-03-16T22:49:43.975Z,97104.77
2018-03-16T22:52:11.472Z,97098.80
2018-03-16T22:54:38.979Z,97092.72
2018-03-16T22:57:06.468Z,97088.81
2018-03-16T22:59:33.991Z,97083.21
2018-03-16T23:02:01.479Z,97087.19
2018-03-16T23:04:29.128Z,97077.52
2018-03-16T23:06:56.626Z,97079.09
2018-03-16T23:09:24.136Z,97074.77
2018-03-16T23:11:51.708Z,97067.28
2018-03-16T23:14:19.228Z,97067.81
2018-03-16T23:16:46.780Z,97071.20
2018-03-16T23:19:14.243Z,97068.38
2018-03-16T23:21:41.747Z,97061.28
2018-03-16T23:24:09.299Z,97058.47
2018-03-16T23:26:36.779Z,97051.25
2018-03-16T23:29:04.316Z,97044.95
2018-03-16T23:31:31.948Z,97047.93
2018-03-16T23:33:59.464Z,97044.83
2018-03-16T23:36:26.955Z,97031.40
2018-03-16T23:38:54.556Z,97033.00
2018-03-16T23:41:22.050Z,97029.37
2018-03-16T23:43:49.536Z,97028.20
2018-03-16T23:46:17.045Z,97017.77
2018-03-16T23:48:44.537Z,97014.86
2018-03-16T23:51:12.048Z,97019.92
2018-03-16T23:53:39.535Z,97015.88
2018-03-16T23:56:07.059Z,97018.15
2018-03-16T23:58:34.543Z,97017.73
